Terminal Aerodrome Forecast
Issued by NWS Wilmington, NC

Home | Current Version | Previous Version | Text Only | Print | Product List | Glossary On
Versions: 1 2 3 4 5 6 7 8 9 10 11 12 13 14 15 16 17
000
FTUS42 KILM 271720
TAFLBT
TAF
KLBT 271720Z 2718/2818 20009G18KT P6SM BKN060 BKN250
     FM280100 19006KT P6SM VCTS OVC030CB
     FM280800 19006KT P6SM VCSH BKN015
     FM281200 21005KT P6SM OVC015
     FM281600 23008KT P6SM BKN050=

USA.gov is the U.S. government's official web portal to all federal, state and local government web resources and services.